Minneapolis/St.Paul Radar Regional Satellite Twin Cities Traffic Info Map
Radar Satellite Traffic Traffic Cams
KLVN - Lakeville, Minnesota, USA
Distance from station: ENE 4mi, 6km
Updated: Sat, 17-Feb-2018 1:15pm CST
Mostly Cloudy
Mostly Cloudy
 Wind from W
Wind: W 8 mph , 13 km/h
Temperature: 28°F , -2°C
Wind Chill: 20°F , -7°C
Dew Point: 25°F , -4°C
Humidity: 86%
Barometer: 29.88 inHg , 1011.9 hPa
Clouds: Mostly Cloudy
Visibility: 10 miles , 16 km
Cloud details: Mostly Cloudy 1500 ft
2018/02/17 19:15 KLVN 171915Z AUTO 27007KT 10SM BKN015 M02/M04 A2988 RMK AO2
KFCM - Eden Prairie, Minnesota, USA
Distance from station: NNW 17mi, 28km
Updated: Sat, 17-Feb-2018 12:53pm CST
Few Clouds
Few Clouds
 Wind from W
Wind: W 8 mph , 13 km/h
Temperature: 32°F , 0°C
Wind Chill: 25°F , -4°C
Dew Point: 23°F , -5°C
Humidity: 69%
Barometer: 29.87 inHg , 1011.5 hPa
Clouds: Few Clouds
Visibility: 10 miles , 16 km
Cloud details: Few Clouds 1900 ft
2018/02/17 18:53 KFCM 171853Z 26007KT 10SM FEW019 00/M05 A2987 RMK AO2 SLP127 T00001050
 
KSYN - Stanton, Minnesota, USA
Distance from station: SE 18mi, 28km
Updated: Sat, 17-Feb-2018 1:15pm CST
Overcast
Overcast
 Wind from WNW
Wind: WNW 10 mph , 17 km/h
Temperature: 30°F , -1°C
Wind Chill: 21°F , -6°C
Dew Point: 25°F , -4°C
Humidity: 80%
Barometer: 29.88 inHg , 1011.9 hPa
Clouds: Overcast
Visibility: 10 miles , 16 km
Cloud details: Overcast 1300 ft
2018/02/17 19:15 KSYN 171915Z AUTO 29009KT 10SM OVC013 M01/M04 A2988 RMK AO2 T10071044
KFBL - Faribault, Minnesota, USA
Distance from station: S 19mi, 31km
Updated: Sat, 17-Feb-2018 1:15pm CST
Partly Cloudy
Partly Cloudy
 Wind from W
Wind: W 9 mph , 15 km/h
Temperature: 30°F , -1°C
Wind Chill: 22°F , -6°C
Dew Point: 23°F , -5°C
Humidity: 75%
Barometer: 29.89 inHg , 1012.2 hPa
Clouds: Partly Cloudy
Visibility: 10 miles , 16 km
Cloud details: Partly Cloudy 1500 ft
Partly Cloudy 3100 ft
2018/02/17 19:15 KFBL 171915Z AUTO 27008KT 10SM SCT015 SCT031 M01/M05 A2989 RMK AO2
 
KMSP - Minneapolis, Minnesota, USA
Distance from station: N 19mi, 31km
Updated: Sat, 17-Feb-2018 1:29pm CST
Mostly Cloudy
Mostly Cloudy
 Wind from W
Wind: W 7 mph , 11 km/h
Temperature: 34°F , 1°C
Wind Chill: 28°F , -2°C
Dew Point: 25°F , -4°C
Humidity: 70%
Barometer: 29.88 inHg , 1011.9 hPa
Clouds: Mostly Cloudy
Visibility: 10 miles , 16 km
Cloud details: Mostly Cloudy 2500 ft
2018/02/17 19:29 KMSP 171929Z 27006KT 10SM BKN025 01/M04 A2988 RMK AO2 T00111039